createdAt,value
2018-07-13T00:00:19.436Z,22.74
2018-07-13T00:01:19.400Z,22.77
2018-07-13T00:02:19.520Z,22.74
2018-07-13T00:03:19.340Z,22.67
2018-07-13T00:04:19.304Z,22.68
2018-07-13T00:05:19.268Z,22.67
2018-07-13T00:06:19.238Z,22.62
2018-07-13T00:07:19.222Z,22.67
2018-07-13T00:08:19.357Z,22.72
2018-07-13T00:09:19.354Z,22.72
2018-07-13T00:10:19.127Z,22.74
2018-07-13T00:11:19.095Z,22.71
2018-07-13T00:12:19.064Z,22.77
2018-07-13T00:13:19.112Z,22.71
2018-07-13T00:14:18.999Z,22.72
2018-07-13T00:15:18.970Z,22.72
2018-07-13T00:16:18.954Z,22.68
2018-07-13T00:17:18.912Z,22.72
2018-07-13T00:18:18.899Z,22.67
2018-07-13T00:19:18.860Z,22.68
2018-07-13T00:20:18.835Z,22.74
2018-07-13T00:21:18.844Z,22.80
2018-07-13T00:22:18.780Z,22.77
2018-07-13T00:23:18.756Z,22.84
2018-07-13T00:24:18.698Z,22.82
2018-07-13T00:25:18.686Z,22.89
2018-07-13T00:26:18.641Z,22.83
2018-07-13T00:27:18.623Z,22.93
2018-07-13T00:28:18.583Z,22.86
2018-07-13T00:29:18.697Z,22.87
2018-07-13T00:30:18.519Z,22.89
2018-07-13T00:31:18.504Z,22.83
2018-07-13T00:32:18.460Z,22.68
2018-07-13T00:33:18.432Z,22.46
2018-07-13T00:34:18.409Z,22.54
2018-07-13T00:35:18.568Z,22.32
2018-07-13T00:36:18.337Z,22.28
2018-07-13T00:37:18.317Z,22.17
2018-07-13T00:38:18.290Z,22.06
2018-07-13T00:39:18.257Z,22.07
2018-07-13T00:40:18.212Z,22.04
2018-07-13T00:41:18.190Z,21.82
2018-07-13T00:42:18.159Z,21.79
2018-07-13T00:43:18.143Z,21.78
2018-07-13T00:44:18.097Z,21.74
2018-07-13T00:45:18.061Z,21.75
2018-07-13T00:46:18.048Z,21.75
2018-07-13T00:48:17.972Z,21.76
2018-07-13T00:49:17.942Z,21.79
2018-07-13T00:50:17.913Z,21.74
2018-07-13T00:51:17.945Z,21.72
2018-07-13T00:52:17.865Z,21.75
2018-07-13T00:53:17.827Z,21.82
2018-07-13T00:54:17.795Z,21.83
2018-07-13T00:55:17.761Z,21.97
2018-07-13T00:56:17.749Z,22.01
2018-07-13T00:57:17.705Z,22.09
2018-07-13T00:58:17.680Z,21.99
2018-07-13T00:59:17.663Z,22.09
2018-07-13T01:00:17.617Z,22.14
2018-07-13T01:01:17.578Z,22.19
2018-07-13T01:02:17.568Z,22.19
2018-07-13T01:03:17.519Z,22.22
2018-07-13T01:04:17.486Z,22.29
2018-07-13T01:05:17.458Z,22.25
2018-07-13T01:06:17.422Z,22.29
2018-07-13T01:07:17.399Z,22.37
2018-07-13T01:09:17.337Z,22.22
2018-07-13T01:10:17.307Z,22.23
2018-07-13T01:11:17.273Z,22.19
2018-07-13T01:12:17.259Z,22.22
2018-07-13T01:13:17.214Z,22.20
2018-07-13T01:14:17.197Z,22.19
2018-07-13T01:15:17.159Z,22.13
2018-07-13T01:16:17.135Z,22.20
2018-07-13T01:17:17.149Z,22.16
2018-07-13T01:18:17.084Z,22.17
2018-07-13T01:19:17.032Z,22.06
2018-07-13T01:20:17.014Z,22.02
2018-07-13T01:21:17.168Z,22.07
2018-07-13T01:22:16.965Z,21.92
2018-07-13T01:23:16.923Z,21.95
2018-07-13T01:24:16.882Z,21.94
2018-07-13T01:25:16.849Z,21.97
2018-07-13T01:26:16.811Z,21.82
2018-07-13T01:27:16.791Z,21.91
2018-07-13T01:28:16.810Z,21.95
2018-07-13T01:29:16.745Z,21.95
2018-07-13T01:30:16.700Z,21.94
2018-07-13T01:31:16.695Z,21.95
2018-07-13T01:32:16.641Z,21.92
2018-07-13T01:33:16.602Z,21.83
2018-07-13T01:34:16.875Z,21.83
2018-07-13T01:35:16.547Z,21.94
2018-07-13T01:36:16.520Z,21.92
2018-07-13T01:37:16.482Z,21.98
2018-07-13T01:38:16.452Z,21.94
2018-07-13T01:39:16.445Z,21.94
2018-07-13T01:40:16.545Z,22.02
2018-07-13T01:41:16.380Z,21.95
2018-07-13T01:42:16.329Z,21.95
2018-07-13T01:43:16.349Z,21.95
2018-07-13T01:44:16.265Z,21.90
2018-07-13T01:45:16.239Z,21.88
2018-07-13T01:46:16.209Z,21.74
2018-07-13T01:47:16.197Z,21.69
2018-07-13T01:48:16.278Z,21.74
2018-07-13T01:49:16.118Z,21.72
2018-07-13T01:50:16.085Z,21.75
2018-07-13T01:52:16.019Z,21.64
2018-07-13T01:53:15.993Z,21.60
2018-07-13T01:54:15.976Z,21.61
2018-07-13T01:55:16.014Z,21.66
2018-07-13T01:56:15.903Z,21.63
2018-07-13T01:57:15.869Z,21.67
2018-07-13T01:58:15.864Z,21.74
2018-07-13T01:59:15.809Z,21.71
2018-07-13T02:00:15.781Z,21.71
2018-07-13T02:01:15.744Z,21.74
2018-07-13T02:02:15.721Z,21.82
2018-07-13T02:03:15.693Z,21.76
2018-07-13T02:04:15.650Z,21.74
2018-07-13T02:05:15.626Z,21.78
2018-07-13T02:06:15.621Z,21.74
2018-07-13T02:07:15.881Z,21.72
2018-07-13T02:08:15.558Z,21.67
2018-07-13T02:09:15.507Z,21.71
2018-07-13T02:10:15.483Z,21.76
2018-07-13T02:11:15.441Z,21.69
2018-07-13T02:12:15.483Z,21.71
2018-07-13T02:13:15.535Z,21.63
2018-07-13T02:14:15.418Z,21.63
2018-07-13T02:15:15.311Z,21.61
2018-07-13T02:16:15.313Z,21.64
2018-07-13T02:17:15.253Z,21.63
2018-07-13T02:18:15.222Z,21.60
2018-07-13T02:19:15.349Z,21.69
2018-07-13T02:20:15.170Z,21.61
2018-07-13T02:21:15.136Z,21.61
2018-07-13T02:22:15.103Z,21.69
2018-07-13T02:23:15.081Z,21.76
2018-07-13T02:24:15.040Z,21.71
2018-07-13T02:25:15.007Z,21.75
2018-07-13T02:26:14.983Z,21.76
2018-07-13T02:27:14.951Z,21.74
2018-07-13T02:28:14.915Z,21.69
2018-07-13T02:29:14.895Z,21.64
2018-07-13T02:30:14.854Z,21.67
2018-07-13T02:31:14.827Z,21.59
2018-07-13T02:32:14.809Z,21.51
2018-07-13T02:33:14.760Z,21.46
2018-07-13T02:34:14.738Z,21.51
2018-07-13T02:35:14.700Z,21.45
2018-07-13T02:36:14.672Z,21.38
2018-07-13T02:37:14.636Z,21.32
2018-07-13T02:38:14.610Z,21.34
2018-07-13T02:39:14.620Z,21.30
2018-07-13T02:40:14.751Z,21.14
2018-07-13T02:41:14.519Z,21.26
2018-07-13T02:42:14.500Z,21.32
2018-07-13T02:43:14.460Z,21.41
2018-07-13T02:44:14.428Z,21.42
2018-07-13T02:45:14.388Z,21.39
2018-07-13T02:46:14.562Z,21.42
2018-07-13T02:47:14.334Z,21.45
2018-07-13T02:48:14.311Z,21.46
2018-07-13T02:49:14.276Z,21.44
2018-07-13T02:50:14.245Z,21.50
2018-07-13T02:51:14.202Z,21.42
2018-07-13T02:52:14.282Z,21.46
2018-07-13T02:53:14.148Z,21.42
2018-07-13T02:54:14.114Z,21.39
2018-07-13T02:55:14.092Z,21.46
2018-07-13T02:56:14.054Z,21.42
2018-07-13T02:57:14.024Z,21.38
2018-07-13T02:58:13.991Z,21.44
2018-07-13T02:59:13.959Z,21.51
2018-07-13T03:00:13.927Z,21.51
2018-07-13T03:01:13.903Z,21.53
2018-07-13T03:02:13.872Z,21.51
2018-07-13T03:03:13.840Z,21.42
2018-07-13T03:04:13.815Z,21.38
2018-07-13T03:05:13.793Z,21.39
2018-07-13T03:06:13.746Z,21.38
2018-07-13T03:07:13.724Z,21.29
2018-07-13T03:08:13.694Z,21.36
2018-07-13T03:09:13.661Z,21.38
2018-07-13T03:10:13.624Z,21.35
2018-07-13T03:11:13.589Z,21.26
2018-07-13T03:12:13.560Z,21.24
2018-07-13T03:13:13.684Z,21.17
2018-07-13T03:14:13.538Z,21.08
2018-07-13T03:15:13.466Z,21.13
2018-07-13T03:16:13.439Z,21.19
2018-07-13T03:17:13.408Z,21.13
2018-07-13T03:18:13.379Z,21.06
2018-07-13T03:19:13.692Z,21.06
2018-07-13T03:20:13.309Z,21.08
2018-07-13T03:21:13.293Z,21.06
2018-07-13T03:22:13.409Z,20.98
2018-07-13T03:23:13.219Z,21.02
2018-07-13T03:24:13.194Z,20.98
2018-07-13T03:25:13.311Z,21.05
2018-07-13T03:26:13.140Z,20.96
2018-07-13T03:27:13.099Z,20.89
2018-07-13T03:28:13.063Z,20.83
2018-07-13T03:29:13.039Z,20.84
2018-07-13T03:30:13.004Z,20.84
2018-07-13T03:31:12.967Z,20.89
2018-07-13T03:32:12.941Z,20.90
2018-07-13T03:33:12.916Z,20.95
2018-07-13T03:34:12.872Z,20.87
2018-07-13T03:35:12.868Z,20.89
2018-07-13T03:36:12.819Z,20.95
2018-07-13T03:37:12.785Z,21.02
2018-07-13T03:38:12.757Z,20.95
2018-07-13T03:39:12.719Z,20.98
2018-07-13T03:40:12.694Z,20.99
2018-07-13T03:41:12.670Z,20.89
2018-07-13T03:42:12.632Z,20.96
2018-07-13T03:43:12.605Z,20.90
2018-07-13T03:44:12.573Z,20.89
2018-07-13T03:45:12.536Z,20.79
2018-07-13T03:46:12.864Z,20.84
2018-07-13T03:47:12.471Z,20.86
2018-07-13T03:48:12.438Z,20.90
2018-07-13T03:49:12.412Z,20.96
2018-07-13T03:50:12.385Z,20.86
2018-07-13T03:51:12.352Z,20.91
2018-07-13T03:52:12.467Z,20.89
2018-07-13T03:53:12.292Z,20.81
2018-07-13T03:54:12.322Z,20.74
2018-07-13T03:55:12.230Z,20.76
2018-07-13T03:56:12.187Z,20.69
2018-07-13T03:57:12.155Z,20.71
2018-07-13T03:58:12.137Z,20.77
2018-07-13T03:59:12.104Z,20.74
2018-07-13T04:00:12.070Z,20.79
2018-07-13T04:01:12.030Z,20.86
2018-07-13T04:02:12.005Z,20.84
2018-07-13T04:03:11.966Z,20.80
2018-07-13T04:04:12.040Z,20.86
2018-07-13T04:05:11.905Z,20.81
2018-07-13T04:06:11.894Z,20.81
2018-07-13T04:07:11.976Z,20.72
2018-07-13T04:08:11.820Z,20.72
2018-07-13T04:09:11.801Z,20.66
2018-07-13T04:10:11.769Z,20.64
2018-07-13T04:11:11.719Z,20.59
2018-07-13T04:12:11.698Z,20.68
2018-07-13T04:13:11.658Z,20.68
2018-07-13T04:14:11.623Z,20.64
2018-07-13T04:15:11.596Z,20.65
2018-07-13T04:16:11.613Z,20.59
2018-07-13T04:17:11.531Z,20.56
2018-07-13T04:18:11.654Z,20.49
2018-07-13T04:19:11.473Z,20.58
2018-07-13T04:20:11.442Z,20.41
2018-07-13T04:21:11.403Z,20.30
2018-07-13T04:22:11.379Z,20.42
2018-07-13T04:23:11.342Z,20.46
2018-07-13T04:24:11.457Z,20.33
2018-07-13T04:25:11.278Z,20.42
2018-07-13T04:26:11.258Z,20.46
2018-07-13T04:27:11.217Z,20.42
2018-07-13T04:28:11.194Z,20.39
2018-07-13T04:29:11.154Z,20.49
2018-07-13T04:30:11.129Z,20.47
2018-07-13T04:31:11.099Z,20.50
2018-07-13T04:32:11.072Z,20.50
2018-07-13T04:33:11.027Z,20.53
2018-07-13T04:34:11.017Z,20.58
2018-07-13T04:35:10.965Z,20.59
2018-07-13T04:36:10.938Z,20.54
2018-07-13T04:37:10.907Z,20.56
2018-07-13T04:38:10.874Z,20.50
2018-07-13T04:39:10.913Z,20.51
2018-07-13T04:40:10.809Z,20.42
2018-07-13T04:41:10.853Z,20.33
2018-07-13T04:42:10.745Z,20.30
2018-07-13T04:43:10.716Z,20.34
2018-07-13T04:44:10.684Z,20.34
2018-07-13T04:45:10.657Z,20.27
2018-07-13T04:46:10.645Z,20.31
2018-07-13T04:47:10.587Z,20.21
2018-07-13T04:48:10.590Z,20.21
2018-07-13T04:49:10.526Z,20.24
2018-07-13T04:50:10.700Z,20.27
2018-07-13T04:51:10.463Z,20.31
2018-07-13T04:52:10.444Z,20.34
2018-07-13T04:53:10.404Z,20.31
2018-07-13T04:54:10.365Z,20.31
2018-07-13T04:55:10.336Z,20.41
2018-07-13T04:56:10.502Z,20.43
2018-07-13T04:57:10.274Z,20.43
2018-07-13T04:58:10.244Z,20.42
2018-07-13T04:59:10.212Z,20.53
2018-07-13T05:00:10.181Z,20.50
2018-07-13T05:01:10.146Z,20.56
2018-07-13T05:02:10.112Z,20.53
2018-07-13T05:03:10.090Z,20.53
2018-07-13T05:04:10.056Z,20.43
2018-07-13T05:05:10.021Z,20.34
2018-07-13T05:06:10.016Z,20.35
2018-07-13T05:07:09.960Z,20.34
2018-07-13T05:08:09.926Z,20.24
2018-07-13T05:09:09.896Z,20.30
2018-07-13T05:10:09.867Z,20.20
2018-07-13T05:11:09.833Z,20.24
2018-07-13T05:12:09.801Z,20.31
2018-07-13T05:13:09.766Z,20.33
2018-07-13T05:14:09.744Z,20.42
2018-07-13T05:15:09.702Z,20.38
2018-07-13T05:16:09.670Z,20.41
2018-07-13T05:17:09.644Z,20.34
2018-07-13T05:18:09.612Z,20.41
2018-07-13T05:19:09.577Z,20.21
2018-07-13T05:20:09.545Z,20.15
2018-07-13T05:21:09.526Z,20.21
2018-07-13T05:22:09.630Z,20.21
2018-07-13T05:23:09.454Z,20.20
2018-07-13T05:24:09.422Z,20.12
2018-07-13T05:25:09.384Z,20.12
2018-07-13T05:26:09.356Z,20.09
2018-07-13T05:27:09.328Z,20.16
2018-07-13T05:28:09.494Z,20.16
2018-07-13T05:29:09.259Z,20.09
2018-07-13T05:30:09.228Z,20.10
2018-07-13T05:31:09.195Z,20.02
2018-07-13T05:32:09.165Z,20.12
2018-07-13T05:33:09.133Z,20.10
2018-07-13T05:34:09.107Z,20.03
2018-07-13T05:35:09.073Z,20.05
2018-07-13T05:36:09.044Z,20.08
2018-07-13T05:37:09.004Z,20.08
2018-07-13T05:38:08.980Z,20.06
2018-07-13T05:39:08.951Z,20.16
2018-07-13T05:40:08.914Z,20.10
2018-07-13T05:41:08.881Z,20.18
2018-07-13T05:42:08.848Z,20.06
2018-07-13T05:43:08.820Z,20.15
2018-07-13T05:44:08.792Z,20.03
2018-07-13T05:45:08.754Z,20.09
2018-07-13T05:46:08.729Z,20.12
2018-07-13T05:47:08.692Z,20.08
2018-07-13T05:49:08.628Z,20.16
2018-07-13T05:50:08.596Z,20.16
2018-07-13T05:51:08.560Z,20.18
2018-07-13T05:52:08.529Z,20.13
2018-07-13T05:53:08.600Z,20.20
2018-07-13T05:54:08.769Z,20.24
2018-07-13T05:55:08.438Z,20.23
2018-07-13T05:56:08.405Z,20.24
2018-07-13T05:57:08.371Z,20.28
2018-07-13T05:58:08.341Z,20.20
2018-07-13T05:59:08.317Z,20.15
2018-07-13T06:00:08.428Z,20.20
2018-07-13T06:01:08.245Z,20.13
2018-07-13T06:02:08.212Z,20.16
2018-07-13T06:03:08.190Z,20.20
2018-07-13T06:04:08.151Z,20.13
2018-07-13T06:05:08.118Z,20.15
2018-07-13T06:06:08.085Z,20.20
2018-07-13T06:07:08.056Z,20.16
2018-07-13T06:08:08.028Z,20.13
2018-07-13T06:09:07.988Z,20.15
2018-07-13T06:10:07.958Z,20.13
2018-07-13T06:11:07.932Z,20.15
2018-07-13T06:12:07.897Z,20.18
2018-07-13T06:13:07.862Z,20.20
2018-07-13T06:14:07.832Z,20.20
2018-07-13T06:15:07.873Z,20.21
2018-07-13T06:16:07.814Z,20.27
2018-07-13T06:17:07.736Z,20.27
2018-07-13T06:18:07.707Z,20.25
2018-07-13T06:19:07.678Z,20.27
2018-07-13T06:20:07.645Z,20.21
2018-07-13T06:21:07.611Z,20.20
2018-07-13T06:22:07.576Z,20.16
2018-07-13T06:23:07.548Z,20.16
2018-07-13T06:24:07.556Z,20.20
2018-07-13T06:25:07.480Z,20.15
2018-07-13T06:26:07.607Z,20.18
2018-07-13T06:27:07.423Z,20.16
2018-07-13T06:28:07.391Z,20.16
2018-07-13T06:29:07.353Z,20.16
2018-07-13T06:30:07.350Z,20.21
2018-07-13T06:31:07.290Z,20.20
2018-07-13T06:32:07.606Z,20.16
2018-07-13T06:33:07.225Z,20.20
2018-07-13T06:34:07.199Z,20.21
2018-07-13T06:35:07.163Z,20.10
2018-07-13T06:36:07.132Z,20.06
2018-07-13T06:37:07.101Z,20.08
2018-07-13T06:38:07.416Z,20.08
2018-07-13T06:39:07.035Z,20.06
2018-07-13T06:40:07.003Z,20.16
2018-07-13T06:41:06.973Z,20.10
2018-07-13T06:42:06.959Z,20.06
2018-07-13T06:43:06.907Z,20.06
2018-07-13T06:44:06.874Z,20.08
2018-07-13T06:45:06.845Z,20.03
2018-07-13T06:46:06.814Z,20.05
2018-07-13T06:47:06.798Z,20.09
2018-07-13T06:48:06.752Z,20.12
2018-07-13T06:49:06.712Z,20.06
2018-07-13T06:50:06.681Z,19.94
2018-07-13T06:51:06.657Z,19.95
2018-07-13T06:52:06.620Z,19.94
2018-07-13T06:53:06.595Z,19.83
2018-07-13T06:54:06.853Z,19.88
2018-07-13T06:55:06.521Z,19.79
2018-07-13T06:56:06.492Z,19.83
2018-07-13T06:57:06.466Z,19.84
2018-07-13T06:58:06.426Z,19.84
2018-07-13T06:59:06.393Z,19.84
2018-07-13T07:00:06.513Z,19.83
2018-07-13T07:01:06.335Z,19.84
2018-07-13T07:02:06.318Z,19.84
2018-07-13T07:03:06.272Z,19.86
2018-07-13T07:04:06.243Z,19.90
2018-07-13T07:05:06.209Z,19.84
2018-07-13T07:06:06.171Z,19.80
2018-07-13T07:07:06.141Z,19.80
2018-07-13T07:08:06.107Z,19.75
2018-07-13T07:09:06.083Z,19.70
2018-07-13T07:10:06.050Z,19.72
2018-07-13T07:11:06.018Z,19.63
2018-07-13T07:12:05.984Z,19.53
2018-07-13T07:13:05.954Z,19.55
2018-07-13T07:14:05.913Z,19.63
2018-07-13T07:15:05.881Z,19.54
2018-07-13T07:16:05.914Z,19.50
2018-07-13T07:17:05.825Z,19.53
2018-07-13T07:18:05.786Z,19.58
2018-07-13T07:19:05.755Z,19.57
2018-07-13T07:20:05.727Z,19.66
2018-07-13T07:21:05.688Z,19.61
2018-07-13T07:22:05.659Z,19.63
2018-07-13T07:23:05.629Z,19.68
2018-07-13T07:24:05.594Z,19.70
2018-07-13T07:25:05.562Z,19.70
2018-07-13T07:26:05.985Z,19.72
2018-07-13T07:27:05.497Z,19.68
2018-07-13T07:28:05.463Z,19.69
2018-07-13T07:29:05.437Z,19.68
2018-07-13T07:30:05.401Z,19.69
2018-07-13T07:31:05.377Z,19.70
2018-07-13T07:32:05.491Z,19.73
2018-07-13T07:33:05.307Z,19.69
2018-07-13T07:34:05.270Z,19.73
2018-07-13T07:35:05.240Z,19.76
2018-07-13T07:36:05.211Z,19.65
2018-07-13T07:37:05.175Z,19.68
2018-07-13T07:38:05.144Z,19.65
2018-07-13T07:39:05.111Z,19.61
2018-07-13T07:40:05.086Z,19.73
2018-07-13T07:41:05.047Z,19.60
2018-07-13T07:42:05.013Z,19.65
2018-07-13T07:43:04.980Z,19.50
2018-07-13T07:44:04.954Z,19.60
2018-07-13T07:45:04.921Z,19.48
2018-07-13T07:46:04.887Z,19.46
2018-07-13T07:47:04.857Z,19.57
2018-07-13T07:48:04.823Z,19.46
2018-07-13T07:49:04.788Z,19.39
2018-07-13T07:50:04.761Z,19.39
2018-07-13T07:51:04.735Z,19.38
2018-07-13T07:52:04.695Z,19.32
2018-07-13T07:53:04.665Z,19.32
2018-07-13T07:54:04.638Z,19.33
2018-07-13T07:55:04.668Z,19.28
2018-07-13T07:56:04.575Z,19.33
2018-07-13T07:57:04.548Z,19.33
2018-07-13T07:58:04.702Z,19.33
2018-07-13T07:59:04.467Z,19.33
2018-07-13T08:00:04.447Z,19.40
2018-07-13T08:01:04.414Z,19.39
2018-07-13T08:02:04.372Z,19.36
2018-07-13T08:03:04.343Z,19.33
2018-07-13T08:04:04.326Z,19.38
2018-07-13T08:05:04.279Z,19.46
2018-07-13T08:06:04.308Z,19.38
2018-07-13T08:07:04.643Z,19.47
2018-07-13T08:08:04.181Z,19.36
2018-07-13T08:09:04.148Z,19.51
2018-07-13T08:10:04.115Z,19.47
2018-07-13T08:11:04.084Z,19.40
2018-07-13T08:12:04.050Z,19.53
2018-07-13T08:13:04.016Z,19.42
2018-07-13T08:14:04.313Z,19.38
2018-07-13T08:15:03.952Z,19.43
2018-07-13T08:16:03.927Z,19.42
2018-07-13T08:17:03.904Z,19.46
2018-07-13T08:18:03.857Z,19.48
2018-07-13T08:19:03.829Z,19.43
2018-07-13T08:20:03.808Z,19.36
2018-07-13T08:21:03.762Z,19.39
2018-07-13T08:22:03.725Z,19.39
2018-07-13T08:23:03.704Z,19.38
2018-07-13T08:24:03.666Z,19.36
2018-07-13T08:25:03.629Z,19.42
2018-07-13T08:26:03.596Z,19.39
2018-07-13T08:27:03.565Z,19.32
2018-07-13T08:28:03.537Z,19.35
2018-07-13T08:29:03.649Z,19.32
2018-07-13T08:30:03.540Z,19.38
2018-07-13T08:31:03.437Z,19.33
2018-07-13T08:32:03.403Z,19.33
2018-07-13T08:33:03.378Z,19.43
2018-07-13T08:34:03.338Z,19.33
2018-07-13T08:35:03.455Z,19.32
2018-07-13T08:36:03.273Z,19.33
2018-07-13T08:37:03.242Z,19.24
2018-07-13T08:38:03.215Z,19.28
2018-07-13T08:39:03.183Z,19.24
2018-07-13T08:40:03.145Z,19.28
2018-07-13T08:41:03.130Z,19.24
2018-07-13T08:42:03.080Z,19.23
2018-07-13T08:43:03.043Z,19.25
2018-07-13T08:44:03.077Z,19.17
2018-07-13T08:45:02.981Z,19.33
2018-07-13T08:46:02.945Z,19.32
2018-07-13T08:47:02.918Z,19.29
2018-07-13T08:48:02.881Z,19.35
2018-07-13T08:49:02.847Z,19.31
2018-07-13T08:50:02.815Z,19.35
2018-07-13T08:51:02.787Z,19.25
2018-07-13T08:52:02.755Z,19.24
2018-07-13T08:53:02.720Z,19.23
2018-07-13T08:54:02.690Z,19.21
2018-07-13T08:55:02.658Z,19.17
2018-07-13T08:56:02.795Z,19.14
2018-07-13T08:57:02.603Z,19.11
2018-07-13T08:58:02.566Z,19.06
2018-07-13T08:59:02.529Z,19.06
2018-07-13T09:00:02.514Z,19.02
2018-07-13T09:01:02.466Z,19.05
2018-07-13T09:02:02.578Z,19.05
2018-07-13T09:03:02.401Z,19.02
2018-07-13T09:04:02.396Z,19.10
2018-07-13T09:05:02.331Z,19.13
2018-07-13T09:06:02.304Z,19.06
2018-07-13T09:07:02.267Z,18.95
2018-07-13T09:08:02.232Z,18.94
2018-07-13T09:09:02.203Z,18.95
2018-07-13T09:10:02.178Z,18.84
2018-07-13T09:11:02.137Z,18.90
2018-07-13T09:12:02.110Z,18.92
2018-07-13T09:13:02.148Z,18.86
2018-07-13T09:14:02.040Z,18.94
2018-07-13T09:15:02.015Z,18.83
2018-07-13T09:16:01.975Z,18.84
2018-07-13T09:17:01.948Z,18.83
2018-07-13T09:18:01.922Z,18.83
2018-07-13T09:19:01.890Z,18.87
2018-07-13T09:20:01.857Z,18.80
2018-07-13T09:21:01.811Z,18.68
2018-07-13T09:22:01.781Z,18.64
2018-07-13T09:23:01.747Z,18.72
2018-07-13T09:24:01.726Z,18.67
2018-07-13T09:25:01.686Z,18.62
2018-07-13T09:26:01.651Z,18.70
2018-07-13T09:27:01.622Z,18.65
2018-07-13T09:28:01.737Z,18.65
2018-07-13T09:29:01.552Z,18.74
2018-07-13T09:30:01.516Z,18.67
2018-07-13T09:31:01.485Z,18.65
2018-07-13T09:32:01.452Z,18.62
2018-07-13T09:33:01.420Z,18.73
2018-07-13T09:34:01.751Z,18.76
2018-07-13T09:35:01.373Z,18.74
2018-07-13T09:36:01.337Z,18.68
2018-07-13T09:37:01.295Z,18.73
2018-07-13T09:38:01.271Z,18.67
2018-07-13T09:39:01.226Z,18.68
2018-07-13T09:40:01.344Z,18.67
2018-07-13T09:41:01.163Z,18.68
2018-07-13T09:42:01.128Z,18.62
2018-07-13T09:43:01.097Z,18.68
2018-07-13T09:44:01.062Z,18.64
2018-07-13T09:45:01.028Z,18.70
2018-07-13T09:46:01.007Z,18.65
2018-07-13T09:47:01.103Z,18.62
2018-07-13T09:48:00.931Z,18.65
2018-07-13T09:49:00.917Z,18.68
2018-07-13T09:50:00.866Z,18.61
2018-07-13T09:51:00.832Z,18.64
2018-07-13T09:52:00.818Z,18.74
2018-07-13T09:53:00.777Z,18.65
2018-07-13T09:54:01.024Z,18.62
2018-07-13T09:55:00.705Z,18.72
2018-07-13T09:56:01.021Z,18.70
2018-07-13T09:57:00.637Z,18.68
2018-07-13T09:58:00.609Z,18.82
2018-07-13T09:59:00.568Z,18.77
2018-07-13T10:00:00.548Z,18.86
2018-07-13T10:01:00.575Z,18.82
2018-07-13T10:02:00.637Z,18.80
2018-07-13T10:03:00.439Z,18.86
2018-07-13T10:04:00.433Z,18.83
2018-07-13T10:05:00.444Z,18.82
2018-07-13T10:06:00.343Z,18.83
2018-07-13T10:07:00.354Z,18.91
2018-07-13T10:08:00.286Z,18.84
2018-07-13T10:09:00.250Z,18.87
2018-07-13T10:10:00.211Z,18.82
2018-07-13T10:11:00.201Z,18.77
2018-07-13T10:12:00.142Z,18.65
2018-07-13T10:13:00.118Z,18.59
2018-07-13T10:14:00.089Z,18.52
2018-07-13T10:15:00.055Z,18.50
2018-07-13T10:16:00.122Z,18.49
2018-07-13T10:16:59.982Z,18.50
2018-07-13T10:17:59.951Z,18.47
2018-07-13T10:18:59.923Z,18.52
2018-07-13T10:19:59.884Z,18.43
2018-07-13T10:20:59.851Z,18.49
2018-07-13T10:21:59.828Z,18.43
2018-07-13T10:22:59.841Z,18.43
2018-07-13T10:23:59.755Z,18.49
2018-07-13T10:24:59.724Z,18.49
2018-07-13T10:25:59.693Z,18.52
2018-07-13T10:26:59.665Z,18.46
2018-07-13T10:27:59.776Z,18.47
2018-07-13T10:28:59.587Z,18.46
2018-07-13T10:29:59.563Z,18.49
2018-07-13T10:30:59.529Z,18.47
2018-07-13T10:31:59.489Z,18.49
2018-07-13T10:32:59.457Z,18.57
2018-07-13T10:33:59.576Z,18.57
2018-07-13T10:34:59.402Z,18.62
2018-07-13T10:35:59.361Z,18.67
2018-07-13T10:36:59.334Z,18.73
2018-07-13T10:37:59.302Z,18.77
2018-07-13T10:38:59.471Z,18.77
2018-07-13T10:39:59.229Z,18.90
2018-07-13T10:40:59.207Z,19.06
2018-07-13T10:41:59.168Z,19.11
2018-07-13T10:42:59.164Z,19.17
2018-07-13T10:43:59.121Z,19.24
2018-07-13T10:44:59.098Z,19.32
2018-07-13T10:45:59.051Z,19.29
2018-07-13T10:46:59.076Z,19.38
2018-07-13T10:47:58.975Z,19.42
2018-07-13T10:48:58.945Z,19.46
2018-07-13T10:49:59.059Z,19.38
2018-07-13T10:50:58.874Z,19.50
2018-07-13T10:51:58.840Z,19.58
2018-07-13T10:52:58.820Z,19.55
2018-07-13T10:53:58.776Z,19.55
2018-07-13T10:54:58.750Z,19.68
2018-07-13T10:55:58.721Z,19.70
2018-07-13T10:56:58.683Z,19.72
2018-07-13T10:57:58.650Z,19.80
2018-07-13T10:58:58.627Z,19.80
2018-07-13T10:59:58.580Z,19.94
2018-07-13T11:00:58.698Z,19.97
2018-07-13T11:01:58.520Z,20.06
2018-07-13T11:02:58.531Z,20.09
2018-07-13T11:03:58.456Z,20.06
2018-07-13T11:04:58.438Z,20.10
2018-07-13T11:05:58.542Z,20.12
2018-07-13T11:06:58.364Z,20.16
2018-07-13T11:07:58.393Z,20.21
2018-07-13T11:08:58.291Z,20.31
2018-07-13T11:09:58.257Z,20.33
2018-07-13T11:10:58.238Z,20.34
2018-07-13T11:11:58.200Z,20.46
2018-07-13T11:12:58.164Z,20.47
2018-07-13T11:13:58.136Z,20.59
2018-07-13T11:14:58.097Z,20.51
2018-07-13T11:15:58.068Z,20.56
2018-07-13T11:16:58.038Z,20.65
2018-07-13T11:17:58.018Z,20.68
2018-07-13T11:18:57.980Z,20.65
2018-07-13T11:19:57.952Z,20.65
2018-07-13T11:20:57.933Z,20.74
2018-07-13T11:22:57.853Z,20.79
2018-07-13T11:23:57.838Z,20.79
2018-07-13T11:24:57.798Z,20.79
2018-07-13T11:25:57.751Z,20.84
2018-07-13T11:26:57.720Z,20.84
2018-07-13T11:27:57.896Z,20.89
2018-07-13T11:28:57.677Z,20.91
2018-07-13T11:29:57.628Z,20.89
2018-07-13T11:30:57.595Z,20.89
2018-07-13T11:31:57.559Z,20.99
2018-07-13T11:32:57.529Z,21.04
2018-07-13T11:33:57.697Z,21.02
2018-07-13T11:34:57.464Z,21.13
2018-07-13T11:35:57.452Z,21.05
2018-07-13T11:36:57.471Z,21.14
2018-07-13T11:37:57.401Z,21.17
2018-07-13T11:38:57.348Z,21.17
2018-07-13T11:39:57.308Z,21.20
2018-07-13T11:40:57.280Z,21.26
2018-07-13T11:41:57.248Z,21.29
2018-07-13T11:42:57.214Z,21.36
2018-07-13T11:43:57.198Z,21.39
2018-07-13T11:44:57.157Z,21.32
2018-07-13T11:45:57.122Z,21.30
2018-07-13T11:46:57.090Z,21.41
2018-07-13T11:47:57.062Z,21.42
2018-07-13T11:48:57.028Z,21.53
2018-07-13T11:49:57.200Z,21.54
2018-07-13T11:50:56.967Z,21.53
2018-07-13T11:51:56.938Z,21.63
2018-07-13T11:52:56.903Z,21.59
2018-07-13T11:53:56.883Z,21.69
2018-07-13T11:54:56.847Z,21.75
2018-07-13T11:55:56.815Z,21.79
2018-07-13T11:56:56.816Z,21.74
2018-07-13T11:57:56.750Z,21.79
2018-07-13T11:58:56.721Z,21.88
2018-07-13T11:59:56.692Z,21.91
2018-07-13T12:00:57.017Z,21.94
2018-07-13T12:01:56.689Z,21.95
2018-07-13T12:02:56.602Z,21.99
2018-07-13T12:03:56.572Z,22.07
2018-07-13T12:04:56.538Z,22.02
2018-07-13T12:05:56.513Z,22.02
2018-07-13T12:06:56.826Z,21.99
2018-07-13T12:07:56.451Z,22.17
2018-07-13T12:08:56.431Z,22.19
2018-07-13T12:09:56.388Z,22.16
2018-07-13T12:10:56.355Z,22.22
2018-07-13T12:11:56.330Z,22.17
2018-07-13T12:12:56.496Z,22.28
2018-07-13T12:13:56.264Z,22.27
2018-07-13T12:14:56.234Z,22.29
2018-07-13T12:15:56.201Z,22.31
2018-07-13T12:16:56.258Z,22.38
2018-07-13T12:17:56.149Z,22.41
2018-07-13T12:18:56.112Z,22.41
2018-07-13T12:19:56.103Z,22.43
2018-07-13T12:20:56.050Z,22.39
2018-07-13T12:21:56.034Z,22.53
2018-07-13T12:22:55.994Z,22.53
2018-07-13T12:23:56.134Z,22.54
2018-07-13T12:24:55.926Z,22.56
2018-07-13T12:25:55.898Z,22.54
2018-07-13T12:26:55.905Z,22.57
2018-07-13T12:27:55.839Z,22.64
2018-07-13T12:28:55.811Z,22.64
2018-07-13T12:29:55.780Z,22.60
2018-07-13T12:30:55.750Z,22.60
2018-07-13T12:31:55.719Z,22.67
2018-07-13T12:32:55.691Z,22.64
2018-07-13T12:33:55.672Z,22.72
2018-07-13T12:34:55.980Z,22.74
2018-07-13T12:35:55.613Z,22.71
2018-07-13T12:36:55.578Z,22.75
2018-07-13T12:37:55.582Z,22.77
2018-07-13T12:38:55.519Z,22.86
2018-07-13T12:39:55.574Z,22.87
2018-07-13T12:40:55.861Z,22.90
2018-07-13T12:41:55.423Z,22.92
2018-07-13T12:42:55.394Z,22.87
2018-07-13T12:43:55.375Z,22.86
2018-07-13T12:44:55.345Z,22.90
2018-07-13T12:45:55.314Z,22.90
2018-07-13T12:46:55.269Z,22.87
2018-07-13T12:47:55.251Z,22.86
2018-07-13T12:48:55.221Z,22.90
2018-07-13T12:49:55.197Z,22.94
2018-07-13T12:50:55.148Z,22.96
2018-07-13T12:51:55.120Z,22.90
2018-07-13T12:52:55.110Z,22.94
2018-07-13T12:53:55.090Z,22.93
2018-07-13T12:54:55.031Z,22.93
2018-07-13T12:55:55.005Z,23.01
2018-07-13T12:56:55.123Z,22.99